首页
METAR-TAF:

METAR-TAF

机场 :

巴東, 印度尼西亚

纬度: 00-47-12S, 经度: 100-16-50E, 海拔: 5米

当前天气观测

该预报发布于50分钟前的04:30 UTC
风速6节,风向西,在西转西南北转西北之间变化
温度 33°C
湿度 67%
气压 1008 hPa
能见度10公里或以上
少量云层高于2000英尺

METAR: WIEE 220430Z 28006KT 240V330 9999 FEW020 33/26 Q1008 NOSIG

时间: 12:20 (05:20 UTC)

预报

该预报发布于6小时和20分钟前的23:00 UTC
预报有效从22日的 00点(UTC)到 22日的 24点(UTC)
风速6节,风向西
能见度10公里或以上
散云层高于2000英尺

TAF: WIEE 212300Z 2200/2224 27006KT 9999 SCT020

超过4000个机场的气象观测和天气预报(METAR&TAF报告)。

可查询的气象台以黄色和红色小点在地图上表示。

将鼠标移到小点上方,可查看气象台名称。

然后点击查看天气观测和预报。

如需切换地图:点击带黑十字的绿色按钮放大地图;点击带横线的绿色按钮缩小地图;或者点击绿色箭头查看邻近地区的地图。


METAR-TAF: